createdAt,value
2023-01-19T00:00:05.922Z,5
2023-01-19T00:10:05.949Z,5.5
2023-01-19T00:20:05.884Z,5.5
2023-01-19T00:30:05.940Z,5.5
2023-01-19T00:40:05.858Z,5.5
2023-01-19T00:50:05.933Z,5.5
2023-01-19T01:00:06.056Z,5.5
2023-01-19T01:10:05.930Z,5.5
2023-01-19T01:20:06.050Z,5.5
2023-01-19T01:30:05.941Z,4.5
2023-01-19T01:40:06.060Z,4.5
2023-01-19T01:50:05.932Z,4.5
2023-01-19T02:00:06.060Z,6
2023-01-19T02:10:05.938Z,5.5
2023-01-19T02:20:06.054Z,5
2023-01-19T02:30:06.124Z,5
2023-01-19T02:40:06.051Z,5
2023-01-19T02:50:06.139Z,5.5
2023-01-19T03:00:06.033Z,5.5
2023-01-19T03:10:06.129Z,5.5
2023-01-19T03:20:06.050Z,5.5
2023-01-19T03:30:06.138Z,5.5
2023-01-19T03:40:06.031Z,5.5
2023-01-19T03:50:06.119Z,5
2023-01-19T04:00:06.307Z,5
2023-01-19T04:10:06.108Z,5
2023-01-19T04:20:06.297Z,5
2023-01-19T04:30:06.107Z,5
2023-01-19T04:40:06.229Z,6
2023-01-19T04:50:06.106Z,6
2023-01-19T05:00:06.222Z,5.5
2023-01-19T05:10:06.297Z,5
2023-01-19T05:20:06.232Z,5
2023-01-19T05:30:06.276Z,5
2023-01-19T05:40:06.353Z,5
2023-01-19T05:50:06.280Z,5
2023-01-19T06:00:06.207Z,5
2023-01-19T06:10:06.273Z,5
2023-01-19T06:20:06.193Z,5
2023-01-19T06:30:06.297Z,5
2023-01-19T06:40:06.395Z,5
2023-01-19T06:50:06.272Z,5
2023-01-19T07:00:06.419Z,5.5
2023-01-19T07:10:06.252Z,5.5
2023-01-19T07:20:06.392Z,5.5
2023-01-19T07:30:06.258Z,5.5
2023-01-19T07:40:06.384Z,6
2023-01-19T07:50:06.263Z,5.5
2023-01-19T08:00:06.407Z,5.5
2023-01-19T08:10:06.456Z,5.5
2023-01-19T08:20:06.399Z,6
2023-01-19T08:30:06.467Z,6
2023-01-19T08:40:06.367Z,6
2023-01-19T08:50:06.446Z,6
2023-01-19T09:00:06.368Z,5.5
2023-01-19T09:10:06.433Z,5.5
2023-01-19T09:20:06.557Z,6
2023-01-19T09:30:06.433Z,7
2023-01-19T09:40:06.635Z,7
2023-01-19T09:50:06.425Z,6.5
2023-01-19T10:00:06.713Z,6.5
2023-01-19T10:10:06.667Z,7
2023-01-19T10:20:06.555Z,7
2023-01-19T10:30:06.427Z,7
2023-01-19T10:40:06.564Z,8
2023-01-19T10:50:06.628Z,8
2023-01-19T11:00:06.593Z,8
2023-01-19T11:10:06.601Z,7.5
2023-01-19T11:20:06.536Z,7.5
2023-01-19T11:30:06.602Z,7.5
2023-01-19T11:40:06.620Z,7.5
2023-01-19T11:50:06.606Z,7.5
2023-01-19T12:00:06.723Z,7.5
2023-01-19T12:10:06.597Z,7.5
2023-01-19T12:20:06.816Z,7.5
2023-01-19T12:30:06.607Z,7.5
2023-01-19T12:40:06.741Z,7.5
2023-01-19T12:50:06.599Z,7.5
2023-01-19T13:00:06.737Z,8
2023-01-19T13:10:06.609Z,7.5
2023-01-19T13:20:06.747Z,7.5
2023-01-19T13:30:06.805Z,7.5
2023-01-19T13:40:06.723Z,7.5
2023-01-19T13:50:06.794Z,7.5
2023-01-19T14:00:06.713Z,7.5
2023-01-19T14:10:07.015Z,7.5
2023-01-19T14:20:06.833Z,7.5
2023-01-19T14:30:06.940Z,7.5
2023-01-19T14:40:06.693Z,7.5
2023-01-19T14:50:06.798Z,7.5
2023-01-19T15:00:06.908Z,7.5
2023-01-19T15:10:06.763Z,7.5
2023-01-19T15:20:07.152Z,7.5
2023-01-19T15:30:06.796Z,7.5
2023-01-19T15:40:06.879Z,7.5
2023-01-19T15:50:06.773Z,7.5
2023-01-19T16:00:06.882Z,6.5
2023-01-19T16:10:07.569Z,6.5
2023-01-19T16:20:06.878Z,6.5
2023-01-19T16:30:06.945Z,6.5
2023-01-19T16:40:06.887Z,6.5
2023-01-19T16:50:06.945Z,6.5
2023-01-19T17:00:06.849Z,6.5
2023-01-19T17:10:06.954Z,6.5
2023-01-19T17:20:06.862Z,6.5
2023-01-19T17:30:06.970Z,6.5
2023-01-19T17:40:07.048Z,6.5
2023-01-19T17:50:06.923Z,7
2023-01-19T18:00:07.041Z,7
2023-01-19T18:10:06.917Z,6.5
2023-01-19T18:20:07.044Z,7
2023-01-19T18:30:06.903Z,7
2023-01-19T18:40:07.049Z,7
2023-01-19T18:50:06.922Z,7
2023-01-19T19:00:07.042Z,7
2023-01-19T19:10:07.108Z,7
2023-01-19T19:20:07.055Z,7
2023-01-19T19:30:07.100Z,7
2023-01-19T19:40:07.010Z,7
2023-01-19T19:50:07.109Z,7
2023-01-19T20:00:07.039Z,7
2023-01-19T20:10:07.103Z,7
2023-01-19T20:20:07.011Z,7
2023-01-19T20:30:07.075Z,7
2023-01-19T20:40:07.215Z,7
2023-01-19T20:50:07.112Z,8
2023-01-19T21:00:07.219Z,7.5
2023-01-19T21:10:07.072Z,7.5
2023-01-19T21:20:07.231Z,7.5
2023-01-19T21:30:07.072Z,8
2023-01-19T21:40:07.198Z,8
2023-01-19T21:50:07.440Z,8
2023-01-19T22:00:07.325Z,8
2023-01-19T22:10:07.180Z,8
2023-01-19T22:20:07.310Z,7.5
2023-01-19T22:30:07.171Z,7.5
2023-01-19T22:40:07.287Z,8
2023-01-19T22:50:07.152Z,8
2023-01-19T23:00:07.332Z,8
2023-01-19T23:10:07.216Z,8
2023-01-19T23:20:07.311Z,8
2023-01-19T23:30:07.346Z,8
2023-01-19T23:40:07.270Z,8
2023-01-19T23:50:07.356Z,7.5
